Time;durP1;ratioP1;P1;durP2;ratioP2;P2;SDS_P1;SDS_P2;PMS_P1;PMS_P2;Temp;Humidity;BMP_temperature;BMP_pressure;BME280_temperature;BME280_humidity;BME280_pressure;Samples;Min_cycle;Max_cycle;Signal;HPM_P1;HPM_P2
2021/01/31 00:01:02;;;;;;;6.30;1.50;;;;;;;11.31;61.20;100737.31;4991650;28;20034;-66
2021/01/31 00:03:30;;;;;;;10.57;2.25;;;;;;;11.48;60.66;100734.88;4992338;28;20509;-66
2021/01/31 00:06:00;;;;;;;12.27;3.17;;;;;;;11.62;59.89;100738.53;4992703;28;20392;-66
2021/01/31 00:08:28;;;;;;;6.15;1.27;;;;;;;11.63;59.99;100735.03;4992526;28;20070;-66
2021/01/31 00:10:57;;;;;;;6.50;1.48;;;;;;;11.54;60.30;100727.00;4992904;28;20137;-66
2021/01/31 00:13:27;;;;;;;5.45;1.67;;;;;;;11.42;60.78;100721.59;4992550;28;20491;-66
2021/01/31 00:15:55;;;;;;;5.43;1.33;;;;;;;11.35;61.13;100715.34;4991637;28;20061;-66
2021/01/31 00:18:25;;;;;;;7.78;1.20;;;;;;;11.34;61.10;100726.78;4992052;28;20048;-66
2021/01/31 00:20:54;;;;;;;7.35;1.20;;;;;;;11.40;61.23;100721.56;4992325;28;20478;-65
2021/01/31 00:23:22;;;;;;;3.75;1.23;;;;;;;11.44;60.78;100715.44;4992205;28;20194;-66
2021/01/31 00:25:50;;;;;;;9.85;2.20;;;;;;;11.40;61.10;100710.09;4992579;28;20225;-66
2021/01/31 00:28:19;;;;;;;5.60;1.50;;;;;;;11.39;61.28;100708.31;4991873;28;20446;-65
2021/01/31 00:30:48;;;;;;;5.90;1.58;;;;;;;11.44;61.13;100699.56;4991687;28;20076;-65
2021/01/31 00:33:18;;;;;;;9.32;1.85;;;;;;;11.42;61.27;100692.53;4992006;28;20117;-65
2021/01/31 00:35:45;;;;;;;4.80;1.20;;;;;;;11.49;60.91;100694.31;4992096;28;20427;-66
2021/01/31 00:38:14;;;;;;;7.68;1.60;;;;;;;11.54;60.75;100693.53;4992262;28;20042;-65
2021/01/31 00:40:41;;;;;;;12.45;2.13;;;;;;;11.52;60.99;100694.38;4991060;28;20062;-66
2021/01/31 00:43:09;;;;;;;11.95;2.70;;;;;;;11.44;61.02;100696.94;4991736;28;20118;-66
2021/01/31 00:45:37;;;;;;;10.18;2.30;;;;;;;11.39;61.44;100700.41;4991138;28;20072;-66
2021/01/31 00:48:06;;;;;;;5.15;1.40;;;;;;;11.44;61.23;100706.63;4991992;28;20130;-66
2021/01/31 00:50:35;;;;;;;9.57;2.40;;;;;;;11.53;60.74;100714.66;4991629;28;20057;-66
2021/01/31 00:53:03;;;;;;;9.57;2.35;;;;;;;11.59;60.58;100706.78;4992202;28;20039;-66
2021/01/31 00:55:30;;;;;;;6.60;2.20;;;;;;;11.59;60.69;100709.44;4991147;28;20039;-66
2021/01/31 00:57:57;;;;;;;11.77;2.60;;;;;;;11.46;60.93;100707.53;4991438;28;20057;-66
2021/01/31 01:00:28;;;;;;;10.73;3.30;;;;;;;11.28;61.54;100705.56;4990833;28;20564;-65
2021/01/31 01:02:56;;;;;;;8.50;1.73;;;;;;;11.21;61.48;100703.72;4991813;28;20407;-66
2021/01/31 01:05:26;;;;;;;13.27;2.40;;;;;;;11.07;62.10;100703.56;4990830;28;20142;-65
2021/01/31 01:07:53;;;;;;;8.82;2.97;;;;;;;11.03;62.16;100700.84;4991366;28;20042;-66
2021/01/31 01:10:24;;;;;;;10.98;1.45;;;;;;;11.06;62.39;100698.25;4991010;28;20130;-66
2021/01/31 01:12:51;;;;;;;6.88;1.55;;;;;;;10.97;62.67;100692.84;4991706;28;20073;-65
2021/01/31 01:15:22;;;;;;;10.18;2.53;;;;;;;10.94;62.40;100698.09;4990548;28;20046;-65
2021/01/31 01:17:49;;;;;;;11.30;3.13;;;;;;;10.94;62.29;100698.97;4991466;28;20509;-65
2021/01/31 01:20:16;;;;;;;11.93;2.90;;;;;;;10.95;62.33;100695.47;4991475;28;20057;-66
2021/01/31 01:22:45;;;;;;;13.48;4.68;;;;;;;10.94;62.23;100701.63;4991465;28;20125;-65
2021/01/31 01:25:14;;;;;;;13.00;5.07;;;;;;;10.87;62.54;100710.31;4991291;28;20045;-66
2021/01/31 01:27:41;;;;;;;19.00;7.63;;;;;;;10.77;62.79;100697.84;4990375;28;20471;-65
2021/01/31 01:30:10;;;;;;;12.10;4.20;;;;;;;10.74;63.28;100708.38;4990848;28;20129;-66
2021/01/31 01:32:38;;;;;;;11.32;3.08;;;;;;;10.73;62.97;100694.31;4990883;28;20146;-66
2021/01/31 01:35:06;;;;;;;10.02;1.90;;;;;;;10.67;63.40;100701.25;4991511;28;20092;-66
2021/01/31 01:37:33;;;;;;;9.13;1.95;;;;;;;10.60;63.48;100695.00;4990473;28;20030;-65
2021/01/31 01:40:04;;;;;;;8.02;1.48;;;;;;;10.59;63.75;100689.69;4990707;28;20594;-66
2021/01/31 01:42:31;;;;;;;11.68;7.15;;;;;;;10.53;63.80;100697.50;4990215;28;20070;-65
2021/01/31 01:44:58;;;;;;;12.55;9.52;;;;;;;10.45;64.45;100704.44;4990601;28;20118;-65
2021/01/31 01:47:27;;;;;;;10.27;5.18;;;;;;;10.46;64.33;100707.09;4989905;28;20118;-65
2021/01/31 01:50:02;;;;;;;15.30;8.60;;;;;;;10.41;64.13;100716.69;4990958;28;20113;-66
2021/01/31 01:52:36;;;;;;;15.00;6.93;;;;;;;10.37;64.41;100715.75;4990223;28;20058;-66
2021/01/31 01:55:08;;;;;;;12.52;5.72;;;;;;;10.38;64.48;100714.00;4990950;28;20165;-66
2021/01/31 01:57:40;;;;;;;10.18;4.20;;;;;;;10.32;64.47;100712.16;4990793;28;20550;-66
2021/01/31 02:00:09;;;;;;;15.85;5.72;;;;;;;10.28;64.55;100720.91;4990730;28;20070;-65
2021/01/31 02:02:39;;;;;;;7.40;2.00;;;;;;;10.31;64.36;100723.56;4989308;28;20161;-65
2021/01/31 02:05:12;;;;;;;8.65;1.92;;;;;;;10.31;64.36;100726.22;4990473;28;20042;-66
2021/01/31 02:07:39;;;;;;;10.93;1.90;;;;;;;10.28;64.61;100727.94;4990861;28;20120;-66
2021/01/31 02:10:10;;;;;;;8.43;1.75;;;;;;;10.21;64.97;100739.25;4990883;28;20045;-66
2021/01/31 02:12:38;;;;;;;6.65;2.03;;;;;;;10.21;64.55;100734.84;4990605;28;20046;-65
2021/01/31 02:15:08;;;;;;;13.63;6.75;;;;;;;10.23;64.76;100748.97;4990646;28;20157;-66
2021/01/31 02:17:49;;;;;;;9.75;5.25;;;;;;;10.28;64.90;100744.66;4989816;28;20085;-66
2021/01/31 02:21:13;;;;;;;8.05;1.60;;;;;;;10.36;64.56;100745.66;4990301;28;20089;-65
2021/01/31 02:24:09;;;;;;;6.03;1.55;;;;;;;10.45;64.46;100749.28;4944237;28;20096;-66
2021/01/31 02:27:22;;;;;;;9.07;2.05;;;;;;;10.57;64.29;100744.19;4990443;28;20565;-66
2021/01/31 02:30:26;;;;;;;5.20;1.25;;;;;;;10.57;63.99;100744.19;4989764;28;20053;-65
2021/01/31 02:33:29;;;;;;;9.40;1.67;;;;;;;10.49;64.28;100761.69;4989196;28;20042;-65
2021/01/31 02:36:03;;;;;;;6.50;1.77;;;;;;;10.43;64.35;100754.56;4990211;28;20053;-65
2021/01/31 02:38:37;;;;;;;7.43;1.48;;;;;;;10.43;64.60;100745.75;4990289;28;20133;-65
2021/01/31 02:41:08;;;;;;;5.75;1.27;;;;;;;10.53;64.26;100755.59;4990592;28;20089;-65
2021/01/31 02:43:41;;;;;;;9.50;1.80;;;;;;;10.61;64.32;100752.19;4990061;28;20521;-66
2021/01/31 02:46:14;;;;;;;7.93;1.40;;;;;;;10.66;64.36;100745.22;4989798;28;20049;-66
2021/01/31 02:48:49;;;;;;;11.80;2.00;;;;;;;10.69;64.26;100754.97;4989055;28;20070;-65
2021/01/31 02:51:21;;;;;;;7.10;1.50;;;;;;;10.62;64.21;100746.06;4990041;28;20279;-65
2021/01/31 02:54:00;;;;;;;6.10;1.25;;;;;;;10.54;64.72;100763.53;4990569;28;20043;-65
2021/01/31 02:56:34;;;;;;;6.10;1.38;;;;;;;10.46;64.87;100765.16;4989895;28;20050;-66
2021/01/31 02:59:06;;;;;;;11.70;4.35;;;;;;;10.39;65.06;100771.19;4990116;28;20057;-65
2021/01/31 03:01:39;;;;;;;9.75;2.25;;;;;;;10.36;65.29;100769.41;4992796;28;20521;-66
2021/01/31 03:04:12;;;;;;;6.65;2.70;;;;;;;10.34;65.01;100760.56;4993396;28;20042;-65
2021/01/31 03:06:45;;;;;;;11.47;3.00;;;;;;;10.33;64.71;100765.81;4993774;28;20133;-66
2021/01/31 03:09:20;;;;;;;7.97;2.17;;;;;;;10.31;65.17;100755.22;4993851;28;20351;-65
2021/01/31 03:11:52;;;;;;;16.40;2.35;;;;;;;10.30;65.28;100763.16;4993604;28;20038;-66
2021/01/31 03:14:26;;;;;;;8.82;1.40;;;;;;;10.25;65.34;100760.41;4993346;28;20117;-65
2021/01/31 03:16:58;;;;;;;7.38;1.40;;;;;;;10.22;65.31;100770.03;4993824;28;20121;-66
2021/01/31 03:19:33;;;;;;;7.20;1.55;;;;;;;10.18;65.33;100781.38;4992949;28;20047;-65
2021/01/31 03:22:02;;;;;;;;;;;;;;;10.17;65.43;100784.91;4993932;28;20054;-65
2021/01/31 03:24:33;;;;;;;5.90;1.75;;;;;;;10.22;65.42;100788.50;4993317;28;19922;-65
2021/01/31 03:27:06;;;;;;;7.25;3.15;;;;;;;10.24;64.84;100789.44;4993460;28;20080;-65
2021/01/31 03:29:33;;;;;;;7.82;1.85;;;;;;;10.22;64.77;100783.22;4992663;28;20050;-65
2021/01/31 03:32:05;;;;;;;7.50;1.85;;;;;;;10.15;64.70;100790.09;4993145;28;20121;-65
2021/01/31 03:34:39;;;;;;;4.82;1.60;;;;;;;10.00;65.01;100781.91;4992950;28;20051;-65
2021/01/31 03:37:08;;;;;;;12.02;7.13;;;;;;;9.92;64.91;100794.06;4993452;28;20073;-66
2021/01/31 03:39:42;;;;;;;11.85;2.38;;;;;;;9.93;65.27;100801.13;4992993;28;20134;-66
2021/01/31 03:42:09;;;;;;;8.20;1.52;;;;;;;9.94;65.05;100795.88;4993758;28;20045;-65
2021/01/31 03:44:42;;;;;;;5.28;1.40;;;;;;;9.97;65.00;100789.78;4992165;28;20042;-66
2021/01/31 03:47:22;;;;;;;6.85;1.73;;;;;;;9.94;65.16;100785.34;4992802;28;20510;-65
2021/01/31 03:49:55;;;;;;;11.43;3.72;;;;;;;9.89;65.33;100781.72;4992907;28;20050;-66
2021/01/31 03:52:24;;;;;;;10.77;6.03;;;;;;;9.85;65.01;100784.25;4992411;28;20127;-65
2021/01/31 03:54:51;;;;;;;10.80;5.05;;;;;;;9.79;65.42;100776.25;4993070;28;20039;-66
2021/01/31 03:57:24;;;;;;;6.63;2.17;;;;;;;9.85;65.12;100779.00;4992572;28;20125;-65
2021/01/31 03:59:56;;;;;;;7.47;2.35;;;;;;;9.84;65.27;100783.41;4983139;28;20047;-65
2021/01/31 04:02:26;;;;;;;11.05;3.20;;;;;;;9.81;65.60;100779.81;4992410;28;20574;-65
2021/01/31 04:04:55;;;;;;;8.30;1.90;;;;;;;9.78;65.83;100795.56;4992800;28;20052;-66
2021/01/31 04:07:27;;;;;;;7.90;2.92;;;;;;;9.70;65.60;100789.25;4992106;28;20057;-65
2021/01/31 04:09:56;;;;;;;14.02;8.93;;;;;;;9.64;65.97;100794.41;4992614;28;20109;-65
2021/01/31 04:12:26;;;;;;;13.95;7.40;;;;;;;9.56;66.42;100796.91;4974836;28;20039;-65
2021/01/31 04:14:59;;;;;;;13.73;8.18;;;;;;;9.57;66.26;100806.59;4992761;28;20035;-66
2021/01/31 04:17:27;;;;;;;5.97;1.50;;;;;;;9.51;65.98;100812.63;4992298;28;20046;-65
2021/01/31 04:19:55;;;;;;;6.57;1.80;;;;;;;9.58;65.91;100809.22;4992503;28;20052;-66
2021/01/31 04:22:22;;;;;;;5.00;1.85;;;;;;;9.63;65.97;100811.09;4991611;28;20046;-65
2021/01/31 04:24:48;;;;;;;5.90;1.73;;;;;;;9.62;65.75;100809.31;4992141;28;20546;-65
2021/01/31 04:27:16;;;;;;;7.47;1.40;;;;;;;9.63;65.90;100806.69;4991681;28;20384;-65
2021/01/31 04:29:43;;;;;;;4.90;1.50;;;;;;;9.60;65.77;100794.34;4992324;28;20871;-65
2021/01/31 04:32:11;;;;;;;9.52;4.25;;;;;;;9.55;65.96;100797.75;4991954;28;20125;-65
2021/01/31 04:34:38;;;;;;;25.48;17.98;;;;;;;9.48;66.08;100790.56;4991883;28;20054;-66
2021/01/31 04:37:06;;;;;;;7.57;2.10;;;;;;;9.47;65.85;100792.31;4992342;28;20047;-65
2021/01/31 04:39:33;;;;;;;5.15;1.83;;;;;;;9.44;66.41;100794.91;4991372;28;20415;-66
2021/01/31 04:42:02;;;;;;;6.60;1.20;;;;;;;9.42;66.28;100807.16;4991335;28;20129;-65
2021/01/31 04:44:29;;;;;;;7.43;1.77;;;;;;;9.35;66.45;100805.25;4991829;28;20129;-65
2021/01/31 04:47:04;;;;;;;9.52;2.42;;;;;;;9.26;66.63;100810.31;4992115;28;20050;-66
2021/01/31 04:49:58;;;;;;;5.90;1.20;;;;;;;9.29;66.70;100806.84;4991313;28;20034;-65
2021/01/31 04:52:41;;;;;;;6.75;1.30;;;;;;;9.34;66.53;100808.72;4982264;28;20041;-65
2021/01/31 04:55:38;;;;;;;10.05;1.80;;;;;;;9.32;66.26;100810.44;4991147;28;20038;-66
2021/01/31 04:58:11;;;;;;;6.80;2.05;;;;;;;9.10;66.66;100818.75;4991814;28;20080;-65
2021/01/31 05:00:45;;;;;;;10.00;1.70;;;;;;;8.90;67.00;100820.03;4990922;28;20137;-66
2021/01/31 05:03:13;;;;;;;6.43;1.97;;;;;;;8.88;67.01;100814.72;4992091;28;20121;-66
2021/01/31 05:05:50;;;;;;;7.65;1.10;;;;;;;8.95;66.93;100824.53;4991407;28;20049;-66
2021/01/31 05:08:23;;;;;;;13.93;2.25;;;;;;;8.99;66.75;100828.16;4990960;28;20042;-66
2021/01/31 05:10:52;;;;;;;7.38;2.08;;;;;;;8.94;66.67;100828.03;4991457;28;20053;-65
2021/01/31 05:13:33;;;;;;;10.63;2.65;;;;;;;8.88;66.77;100821.72;4991435;28;20486;-65
2021/01/31 05:16:06;;;;;;;8.80;2.22;;;;;;;8.82;66.97;100833.00;4991610;28;20048;-65
2021/01/31 05:18:37;;;;;;;6.18;1.73;;;;;;;8.80;67.11;100835.59;4991430;28;20038;-65
2021/01/31 05:21:08;;;;;;;3.42;1.60;;;;;;;8.86;66.91;100839.25;4991152;28;20038;-65
2021/01/31 05:23:39;;;;;;;5.20;1.20;;;;;;;8.88;66.98;100835.78;4990092;28;20064;-66
2021/01/31 05:26:08;;;;;;;6.88;2.78;;;;;;;8.83;67.20;100845.31;4991242;28;20085;-66
2021/01/31 05:28:41;;;;;;;7.05;2.80;;;;;;;8.84;67.51;100852.38;4991131;28;20042;-65
2021/01/31 05:31:11;;;;;;;14.40;3.85;;;;;;;8.92;67.50;100849.91;4990882;28;20133;-65
2021/01/31 05:33:50;;;;;;;8.98;1.77;;;;;;;9.04;67.04;100837.03;4991009;28;20055;-66
2021/01/31 05:36:19;;;;;;;13.20;2.03;;;;;;;9.12;66.73;100838.97;4991259;28;20133;-65
2021/01/31 05:38:49;;;;;;;9.93;2.47;;;;;;;9.15;66.77;100836.41;4990858;28;20113;-65
2021/01/31 05:41:43;;;;;;;17.55;6.90;;;;;;;9.18;66.92;100852.31;4991101;28;20039;-65
2021/01/31 05:44:24;;;;;;;8.02;2.95;;;;;;;9.12;66.93;100854.75;4971933;28;20038;-65
2021/01/31 05:46:54;;;;;;;6.35;1.88;;;;;;;9.09;67.15;100857.34;4987438;28;20668;-65
2021/01/31 05:49:36;;;;;;;7.60;1.67;;;;;;;9.14;67.35;100852.19;4990457;28;20050;-66
2021/01/31 05:52:05;;;;;;;5.50;1.27;;;;;;;9.22;67.15;100858.50;4991117;28;20113;-66
2021/01/31 05:54:36;;;;;;;4.78;1.42;;;;;;;9.33;66.93;100861.38;4990532;28;20042;-66
2021/01/31 05:57:04;;;;;;;7.00;1.95;;;;;;;9.40;66.79;100861.53;4990598;28;20566;-66
2021/01/31 05:59:39;;;;;;;6.72;1.35;;;;;;;9.46;66.57;100855.50;4989851;28;20137;-65
2021/01/31 06:02:06;;;;;;;10.35;1.83;;;;;;;9.47;66.47;100859.94;4990733;28;20046;-65
2021/01/31 06:04:33;;;;;;;9.50;2.53;;;;;;;9.56;66.72;100858.41;4990691;28;20450;-66
2021/01/31 06:07:08;;;;;;;6.95;2.10;;;;;;;9.80;66.97;100859.75;4990568;28;20038;-65
2021/01/31 06:09:42;;;;;;;7.90;2.38;;;;;;;10.06;67.31;100862.88;4990341;28;20038;-66
2021/01/31 06:12:14;;;;;;;21.83;7.60;;;;;;;10.29;67.47;100864.25;4990968;28;20134;-66
2021/01/31 06:14:44;;;;;;;15.70;5.53;;;;;;;10.53;67.68;100861.16;4989419;28;20714;-66
2021/01/31 06:17:19;;;;;;;16.08;6.60;;;;;;;10.75;67.34;100868.59;4990748;28;20451;-66
2021/01/31 06:19:48;;;;;;;8.98;2.22;;;;;;;10.98;66.58;100867.19;4990400;28;20116;-66
2021/01/31 06:22:16;;;;;;;6.30;2.17;;;;;;;11.13;65.75;100874.47;4989915;28;20133;-66
2021/01/31 06:24:50;;;;;;;4.45;1.42;;;;;;;11.35;65.40;100870.38;4990490;28;20038;-65
2021/01/31 06:27:30;;;;;;;3.95;1.02;;;;;;;11.54;64.57;100873.31;4990319;28;20049;-66
2021/01/31 06:30:11;;;;;;;4.25;0.90;;;;;;;11.69;64.66;100862.00;4990184;28;20121;-65
2021/01/31 06:32:39;;;;;;;5.47;1.23;;;;;;;11.88;65.00;100861.41;4990210;28;20137;-66
2021/01/31 06:35:10;;;;;;;3.85;0.95;;;;;;;12.10;63.85;100869.59;4993142;28;20046;-66
2021/01/31 06:37:46;;;;;;;3.38;0.98;;;;;;;12.28;63.32;100870.66;4994186;28;20049;-66
2021/01/31 06:40:35;;;;;;;9.75;2.80;;;;;;;12.54;63.00;100877.97;4994650;28;20045;-66
2021/01/31 06:43:08;;;;;;;4.40;1.23;;;;;;;12.73;62.79;100872.84;4994184;28;20039;-66
2021/01/31 06:45:43;;;;;;;4.55;1.05;;;;;;;12.89;61.52;100865.03;4993349;28;20044;-66
2021/01/31 06:48:22;;;;;;;;;;;;;;;12.97;61.32;100873.94;4994971;28;20580;-66
2021/01/31 06:51:05;;;;;;;9.07;2.28;;;;;;;13.25;61.67;100870.66;4993758;28;19922;-66
2021/01/31 06:53:50;;;;;;;8.75;2.80;;;;;;;13.48;61.71;100869.00;4993937;28;20039;-66
2021/01/31 06:57:04;;;;;;;8.70;2.88;;;;;;;13.75;61.04;100865.59;4987635;28;20042;-66
2021/01/31 06:59:55;;;;;;;31.42;17.55;;;;;;;14.02;59.91;100870.13;4989915;28;20122;-66
2021/01/31 07:03:14;;;;;;;11.18;6.50;;;;;;;14.26;59.38;100862.22;4980828;28;20034;-66
2021/01/31 07:05:58;;;;;;;10.15;2.80;;;;;;;14.52;59.13;100859.63;4973861;28;20499;-66
2021/01/31 07:08:45;;;;;;;9.20;2.63;;;;;;;14.78;59.13;100867.63;4976564;28;20132;-66
2021/01/31 07:11:29;;;;;;;12.45;5.00;;;;;;;15.03;58.01;100860.53;4974797;28;20048;-67
2021/01/31 07:14:20;;;;;;;11.77;5.75;;;;;;;15.31;57.76;100864.91;4974333;28;20045;-66
2021/01/31 07:16:52;;;;;;;15.63;5.55;;;;;;;15.54;56.28;100868.44;4985055;28;20055;-66
2021/01/31 07:19:23;;;;;;;13.27;7.10;;;;;;;15.79;55.71;100868.34;4979797;28;20047;-66
2021/01/31 07:22:00;;;;;;;18.05;8.43;;;;;;;16.00;56.01;100862.06;4974872;28;20049;-66
2021/01/31 07:24:36;;;;;;;25.38;13.50;;;;;;;16.21;55.97;100861.94;4975497;28;20042;-66
2021/01/31 07:27:08;;;;;;;28.67;16.73;;;;;;;16.41;55.88;100859.16;4992735;28;20278;-66
2021/01/31 07:29:44;;;;;;;18.42;11.30;;;;;;;16.62;55.71;100854.56;4989158;28;20050;-66
2021/01/31 07:32:17;;;;;;;14.27;7.10;;;;;;;16.85;55.21;100848.19;4989120;28;20034;-66
2021/01/31 07:34:52;;;;;;;15.27;7.03;;;;;;;17.04;53.88;100848.00;4973772;28;20055;-66
2021/01/31 07:37:21;;;;;;;18.17;7.38;;;;;;;17.23;53.18;100842.47;4984093;28;20666;-66
2021/01/31 07:40:00;;;;;;;19.35;8.23;;;;;;;17.32;52.49;100843.28;4991614;28;20045;-66
2021/01/31 07:42:29;;;;;;;32.17;14.77;;;;;;;17.41;52.17;100845.81;4993227;28;20450;-67
2021/01/31 07:45:01;;;;;;;42.88;23.27;;;;;;;17.53;52.08;100845.69;4977341;28;20035;-66
2021/01/31 07:47:28;;;;;;;39.42;21.75;;;;;;;17.66;52.01;100840.22;4990782;28;20141;-67
2021/01/31 07:50:18;;;;;;;37.33;21.08;;;;;;;17.87;51.37;100830.16;4991848;28;20100;-67
2021/01/31 07:52:49;;;;;;;33.42;15.32;;;;;;;18.00;50.92;100833.56;4991079;28;20702;-66
2021/01/31 07:55:35;;;;;;;29.08;14.73;;;;;;;18.14;50.96;100831.56;4997438;28;20062;-66
2021/01/31 07:58:38;;;;;;;37.70;18.88;;;;;;;18.23;50.79;100831.47;4991710;28;20042;-67
2021/01/31 08:01:13;;;;;;;31.13;15.77;;;;;;;18.28;50.61;100818.91;4982611;28;20137;-67
2021/01/31 08:03:40;;;;;;;;;;;;;;;18.25;50.81;100834.97;4992285;28;20145;-67
2021/01/31 08:06:12;;;;;;;20.83;10.43;;;;;;;18.33;51.84;100834.84;4991305;28;19940;-67
2021/01/31 08:08:45;;;;;;;27.48;12.40;;;;;;;18.46;52.60;100839.13;4991360;28;20042;-67
2021/01/31 08:11:54;;;;;;;24.73;12.20;;;;;;;18.53;52.96;100840.78;4989017;28;20034;-67
2021/01/31 08:15:01;;;;;;;16.67;7.10;;;;;;;18.56;53.52;100847.91;4976971;28;20503;-67
2021/01/31 08:18:08;;;;;;;17.98;6.15;;;;;;;18.66;54.21;100855.75;4959570;28;20507;-68
2021/01/31 08:20:41;;;;;;;16.13;6.38;;;;;;;18.74;54.39;100855.63;4975768;28;20073;-67
2021/01/31 08:23:53;;;;;;;14.75;4.43;;;;;;;18.86;54.44;100852.75;4984537;28;20038;-67
2021/01/31 08:26:40;;;;;;;14.18;4.25;;;;;;;18.96;54.93;100861.53;4973284;28;20051;-67
2021/01/31 08:29:18;;;;;;;15.68;6.30;;;;;;;19.09;54.96;100855.94;4988254;28;20047;-67
2021/01/31 08:32:11;;;;;;;14.85;5.05;;;;;;;19.15;54.54;100843.34;4977452;28;20406;-67
2021/01/31 08:35:12;;;;;;;19.85;8.00;;;;;;;19.19;54.50;100837.91;4976528;28;20050;-68
2021/01/31 08:37:39;;;;;;;20.17;5.55;;;;;;;19.20;54.83;100839.66;4990465;28;20140;-67
2021/01/31 08:40:25;;;;;;;16.88;5.22;;;;;;;19.29;54.46;100830.59;4990476;28;20046;-68
2021/01/31 08:42:57;;;;;;;15.98;4.47;;;;;;;19.29;54.40;100830.59;4987959;28;20052;-68
2021/01/31 08:45:40;;;;;;;18.13;4.70;;;;;;;19.28;54.40;100824.34;4980188;28;20077;-67
2021/01/31 08:48:07;;;;;;;15.23;4.07;;;;;;;19.32;54.58;100822.50;4984118;28;20520;-67
2021/01/31 08:50:35;;;;;;;13.60;4.63;;;;;;;19.38;54.39;100822.38;4980225;28;20067;-68
2021/01/31 08:53:04;;;;;;;14.43;3.97;;;;;;;19.46;53.94;100821.34;4990237;28;20051;-68
2021/01/31 08:55:30;;;;;;;11.75;3.28;;;;;;;19.57;53.67;100823.78;4988818;28;20043;-68
2021/01/31 08:58:00;;;;;;;13.85;4.82;;;;;;;19.61;53.25;100797.84;4989428;28;22310;-68
2021/01/31 09:00:29;;;;;;;16.77;3.30;;;;;;;19.61;53.32;100808.56;4981427;28;20406;-68
2021/01/31 09:02:57;;;;;;;26.75;12.57;;;;;;;19.68;53.76;100811.09;4989955;28;20046;-67
2021/01/31 09:05:25;;;;;;;22.08;8.50;;;;;;;19.77;53.25;100804.63;4980302;28;20046;-67
2021/01/31 09:08:03;;;;;;;10.23;3.03;;;;;;;19.78;52.65;100806.41;4979528;28;20671;-68
2021/01/31 09:10:41;;;;;;;15.90;5.47;;;;;;;19.84;52.78;100807.16;4974864;28;20120;-67
2021/01/31 09:13:11;;;;;;;12.10;3.28;;;;;;;19.85;52.89;100808.03;4979341;28;20039;-68
2021/01/31 09:15:39;;;;;;;12.27;4.13;;;;;;;19.94;53.07;100806.97;4975372;28;20505;-68
2021/01/31 09:18:08;;;;;;;14.13;3.13;;;;;;;19.94;52.59;100796.25;4990073;28;20053;-68
2021/01/31 09:20:35;;;;;;;10.18;2.65;;;;;;;20.03;52.18;100804.06;4984337;28;20056;-68
2021/01/31 09:23:10;;;;;;;12.80;2.92;;;;;;;20.01;52.04;100800.56;4988710;28;20050;-69
2021/01/31 09:25:38;;;;;;;;;;;;;;;19.95;52.12;100798.00;4990509;28;20042;-69
2021/01/31 09:28:10;;;;;;;14.80;3.97;;;;;;;19.97;51.51;100796.16;4984525;28;20128;-68
2021/01/31 09:30:40;;;;;;;15.85;3.63;;;;;;;20.00;52.14;100801.47;4972859;28;20042;-68
2021/01/31 09:33:11;;;;;;;20.48;4.25;;;;;;;20.00;51.60;100809.50;4987400;28;20085;-68
2021/01/31 09:35:40;;;;;;;15.52;4.80;;;;;;;20.02;52.53;100811.22;4986324;28;20129;-68
2021/01/31 09:38:16;;;;;;;13.55;3.53;;;;;;;20.11;52.31;100805.66;4990009;28;20041;-68
2021/01/31 09:40:44;;;;;;;11.63;3.25;;;;;;;20.26;51.99;100815.16;4989816;28;20046;-68
2021/01/31 09:43:18;;;;;;;11.35;4.07;;;;;;;20.32;51.92;100801.59;4986651;28;20605;-68
2021/01/31 09:45:50;;;;;;;11.88;3.20;;;;;;;20.28;52.02;100781.16;4971590;28;20125;-68
2021/01/31 09:48:24;;;;;;;15.13;3.97;;;;;;;20.21;51.97;100795.63;4982949;28;20042;-68
2021/01/31 09:50:57;;;;;;;18.50;3.55;;;;;;;20.17;52.44;100783.19;4989526;28;20059;-68
2021/01/31 09:53:39;;;;;;;12.85;4.22;;;;;;;20.18;51.63;100780.47;4989224;28;20069;-68
2021/01/31 09:56:10;;;;;;;9.65;3.25;;;;;;;20.14;52.53;100794.00;4988288;28;20044;-68
2021/01/31 09:58:45;;;;;;;16.92;4.57;;;;;;;20.21;52.71;100776.84;4986130;28;20676;-67
2021/01/31 10:01:24;;;;;;;11.75;3.33;;;;;;;20.15;52.38;100777.00;4983722;28;20042;-68
2021/01/31 10:03:57;;;;;;;15.52;4.18;;;;;;;20.13;52.67;100768.09;4990406;28;20046;-68
2021/01/31 10:06:24;;;;;;;17.90;4.00;;;;;;;20.12;52.84;100769.00;4990577;28;20065;-68
2021/01/31 10:09:02;;;;;;;13.98;2.78;;;;;;;20.22;52.50;100759.81;4989854;28;20043;-69
2021/01/31 10:11:33;;;;;;;13.20;2.38;;;;;;;20.37;52.13;100761.28;4990307;28;20121;-68
2021/01/31 10:14:01;;;;;;;20.08;4.40;;;;;;;20.36;51.55;100760.41;4995746;28;20096;-68
2021/01/31 10:16:31;;;;;;;10.77;3.05;;;;;;;20.43;51.98;100759.34;4990483;28;20036;-68
2021/01/31 10:19:14;;;;;;;14.57;3.05;;;;;;;20.39;51.05;100749.63;4990060;28;20054;-68
2021/01/31 10:21:44;;;;;;;11.80;3.10;;;;;;;20.38;50.89;100738.94;4976049;28;20266;-68
2021/01/31 10:24:28;;;;;;;9.75;2.53;;;;;;;20.32;51.32;100742.59;4989586;28;20400;-69
2021/01/31 10:27:23;;;;;;;15.13;3.65;;;;;;;20.25;51.73;100730.28;4982665;28;20570;-68
2021/01/31 10:29:50;;;;;;;;;;;;;;;20.20;52.22;100740.22;4988674;28;20038;-69
2021/01/31 10:32:27;;;;;;;14.75;2.78;;;;;;;20.31;51.53;100740.84;4988594;28;19965;-68
2021/01/31 10:34:56;;;;;;;12.98;3.00;;;;;;;20.31;51.90;100727.44;4975100;28;20125;-67
2021/01/31 10:37:40;;;;;;;10.68;3.22;;;;;;;20.30;51.35;100741.75;4989248;28;20441;-67
2021/01/31 10:40:09;;;;;;;14.32;4.15;;;;;;;20.32;51.77;100736.38;4995202;28;20042;-67
2021/01/31 10:42:36;;;;;;;12.40;2.30;;;;;;;20.21;52.12;100725.91;4989124;28;20052;-67
2021/01/31 10:45:10;;;;;;;15.98;3.08;;;;;;;20.31;52.65;100740.84;4995078;28;20079;-67
2021/01/31 10:47:37;;;;;;;8.35;2.70;;;;;;;20.48;52.66;100743.16;4987061;28;20056;-67
2021/01/31 10:50:05;;;;;;;10.65;2.47;;;;;;;20.49;51.65;100744.88;4989639;28;20048;-67
2021/01/31 10:52:34;;;;;;;10.93;2.63;;;;;;;20.48;51.81;100738.63;4988655;28;20390;-66
2021/01/31 10:55:02;;;;;;;13.10;3.53;;;;;;;20.39;51.39;100714.75;4995957;28;20117;-66
2021/01/31 10:57:29;;;;;;;11.30;2.05;;;;;;;20.23;52.00;100740.13;5007646;28;20065;-67
2021/01/31 10:59:56;;;;;;;12.45;4.32;;;;;;;20.21;52.61;100736.63;5008990;28;20041;-68
2021/01/31 11:02:23;;;;;;;10.75;3.42;;;;;;;20.27;52.90;100710.56;5008214;28;20526;-67
2021/01/31 11:04:50;;;;;;;15.82;3.17;;;;;;;20.23;53.29;100735.66;5007919;28;20126;-67
2021/01/31 11:07:18;;;;;;;13.32;3.28;;;;;;;20.29;53.01;100731.94;5006735;28;20066;-68
2021/01/31 11:09:45;;;;;;;16.73;4.45;;;;;;;20.29;52.74;100735.50;5008491;28;20191;-68
2021/01/31 11:12:14;;;;;;;12.75;3.83;;;;;;;20.25;53.06;100725.78;5007826;28;20049;-68
2021/01/31 11:14:42;;;;;;;15.15;3.90;;;;;;;20.21;53.17;100699.09;5006903;28;20057;-67
2021/01/31 11:17:09;;;;;;;13.23;3.00;;;;;;;20.17;53.34;100742.97;5008143;28;20060;-67
2021/01/31 11:19:36;;;;;;;12.63;2.97;;;;;;;20.12;53.26;100726.13;5007755;28;20049;-67
2021/01/31 11:22:03;;;;;;;12.43;2.72;;;;;;;20.00;52.84;100739.81;5009308;28;20045;-67
2021/01/31 11:24:30;;;;;;;13.30;3.35;;;;;;;19.97;53.30;100713.09;5007817;28;20041;-66
2021/01/31 11:26:58;;;;;;;13.57;4.13;;;;;;;19.92;53.45;100717.69;4987013;28;20066;-66
2021/01/31 11:29:26;;;;;;;20.15;5.70;;;;;;;20.03;53.90;100732.56;5007678;28;20056;-67
2021/01/31 11:31:54;;;;;;;13.35;3.50;;;;;;;20.07;53.68;100725.38;5008057;28;20049;-67
2021/01/31 11:34:21;;;;;;;13.70;3.53;;;;;;;20.06;53.72;100711.06;4996625;28;20064;-67
2021/01/31 11:36:48;;;;;;;21.75;5.47;;;;;;;20.09;54.35;100707.41;5005617;28;20123;-67
2021/01/31 11:39:15;;;;;;;11.23;3.45;;;;;;;20.04;53.72;100709.34;5008049;28;20044;-68
2021/01/31 11:41:42;;;;;;;13.07;3.53;;;;;;;20.04;53.51;100685.22;4988853;28;20042;-66
2021/01/31 11:44:10;;;;;;;14.77;4.25;;;;;;;20.03;53.70;100696.84;5007153;28;20056;-66
2021/01/31 11:46:38;;;;;;;11.50;3.45;;;;;;;19.96;53.72;100716.69;5013976;28;20046;-67
2021/01/31 11:49:05;;;;;;;17.58;4.50;;;;;;;19.92;53.45;100704.28;5008972;28;20037;-68
2021/01/31 11:51:32;;;;;;;17.90;5.07;;;;;;;19.90;53.52;100707.88;5011013;28;20044;-68